Flight Track Log - Related Links

Times and Time Zones

All times are in EST time to prevent confusion due to time zone crossing. See the EJA941 flight status page for this flight to view local times or setup timezone preferences in your user account.

Time Position Orientation Groundspeed Altitude Reporting Facility
EST Latitude Longitude Course Direction KTS MPH feet Rate Location/Type
Mon 05:34:08 PM 41.9017 -91.8358 286° West 221 254 9,200  Level Chicago Center
Mon 05:35:10 PM 41.9319 -91.9361 292° West 285 328 12,900 3,242 Climbing Chicago Center
Mon 05:36:12 PM 41.9694 -92.0606 292° West 351 404 15,900 2,976 Climbing Chicago Center
Mon 05:37:13 PM 42.0100 -92.1950 292° West 383 441 19,000 2,732 Climbing Chicago Center
Mon 05:38:00 PM 41.9650 -92.3321 289° West  Level Estimated
Mon 05:38:15 PM 42.0614 -92.3683 292° West 414 476 21,500  Level Chicago Center
Mon 05:39:17 PM 42.1033 -92.5108 292° West 413 475 23,400 1,210 Climbing Chicago Center
Mon 05:40:19 PM 42.1497 -92.6628 292° West 433 498 24,000 927 Climbing Chicago Center
Mon 05:41:20 PM 42.1919 -92.8133 291° West 433 498 25,300 976 Climbing Chicago Center
Mon 05:42:22 PM 42.2378 -92.9697 292° West 446 513 26,000 339 Climbing Chicago Center
Mon 05:43:24 PM 42.2828 -93.1247 291° West 446 513 26,000  Level Chicago Center
Mon 05:44:26 PM 42.3344 -93.3072 291° West 437 503 26,000  Level Chicago Center
Mon 05:45:28 PM 42.3775 -93.4586 291° West 433 498 26,000  Level Chicago Center
Mon 05:46:30 PM 42.3931 -93.6153 278° West 426 490 26,000  Level Chicago Center
Mon 05:47:32 PM 42.3939 -93.7742 270° West 425 489 26,000  Level Chicago Center
Mon 05:48:33 PM 42.3944 -93.9333 270° West 424 488 26,000  Level Chicago Center
Mon 05:49:35 PM 42.3967 -94.0989 271° West 438 504 26,000  Level Chicago Center
Mon 05:50:37 PM 42.3992 -94.3011 271° West 448 516 26,000  Level Chicago Center
Mon 05:51:54 PM 42.4033 -94.5197 272° West 438 504 26,000  Level Minneapolis Center
Mon 05:52:56 PM 42.4044 -94.6825 271° West 432 497 26,000  Level Minneapolis Center
Mon 05:53:57 PM 42.4056 -94.8431 271° West 431 496 26,000 -634 Level Minneapolis Center
Mon 05:54:59 PM 42.4056 -95.0058 270° West 433 498 24,700 -1,951 Descending Minneapolis Center
Mon 05:56:00 PM 42.4058 -95.1664 270° West 431 496 22,000 -2,732 Descending Minneapolis Center
Mon 05:57:02 PM 42.4064 -95.3228 270° West 420 483 19,100 -2,952 Descending Minneapolis Center
Mon 05:58:04 PM 42.4064 -95.4700 270° West 403 464 15,900 -2,780 Descending Minneapolis Center
Mon 05:59:05 PM 42.4069 -95.6078 270° West 383 441 13,400 -2,683 Descending Minneapolis Center
Mon 06:00:07 PM 42.4089 -95.7511 271° West 341 392 10,400 -1,951 Descending Minneapolis Center
Mon 06:01:08 PM 42.4103 -95.8561 271° West 306 352 9,400 -1,268 Descending Minneapolis Center
Mon 06:02:10 PM 42.4117 -95.9392 271° West 256 295 7,800 -1,610 Descending Minneapolis Center
Mon 06:03:11 PM 42.4167 -96.0311 274° West 244 281 6,100 -1,366 Descending Minneapolis Center
Mon 06:04:13 PM 42.4253 -96.1231 277° West 245 282 5,000 -780 Descending Minneapolis Center
Mon 06:05:14 PM 42.4328 -96.2047 277° West 239 275 4,500 -1,073 Descending Minneapolis Center
Mon 06:06:16 PM 42.4411 -96.2797 279° West 223 257 2,800 -927 Descending Minneapolis Center
Mon 06:07:17 PM 42.4531 -96.3631 281° West 216 249 2,600 -197 Descending Minneapolis Center
Mon 06:09:00 PM 42.4000 -96.3833 270° West  Level FlightAware Approximate
Mon 06:16:00 PM 42.4026 -96.3844 270° West  Level Estimated
Mon 06:17:00 PM 42.4000 -96.3833 270° West  Level FlightAware Approximate

Login

Don't have an account? Register now (free) for customized features, flight alerts, and more!